Time;durP1;ratioP1;P1;durP2;ratioP2;P2;SDS_P1;SDS_P2;PMS_P1;PMS_P2;Temp;Humidity;BMP_temperature;BMP_pressure;BME280_temperature;BME280_humidity;BME280_pressure;Samples;Min_cycle;Max_cycle;Signal;HPM_P1;HPM_P2
2023/10/31 00:00:36;;;;;;;10.07;3.50;;;;;;;15.71;57.70;100436.77;127264;1086;104175;-82
2023/10/31 00:03:26;;;;;;;11.30;3.50;;;;;;;15.69;58.13;100442.04;127179;1086;104296;-81
2023/10/31 00:05:54;;;;;;;9.13;3.70;;;;;;;15.69;57.57;100439.39;126733;1086;104183;-81
2023/10/31 00:08:24;;;;;;;12.27;3.67;;;;;;;15.69;58.31;100439.39;127215;1086;104219;-81
2023/10/31 00:10:52;;;;;;;9.70;4.20;;;;;;;15.65;57.69;100434.91;126991;1086;102175;-81
2023/10/31 00:13:21;;;;;;;14.30;4.03;;;;;;;15.62;57.67;100434.88;127124;1086;102301;-81
2023/10/31 00:15:49;;;;;;;14.87;4.00;;;;;;;15.60;58.20;100441.91;127087;1086;104155;-83
2023/10/31 00:18:18;;;;;;;13.50;4.33;;;;;;;15.59;58.33;100451.58;127104;1086;104293;-83
2023/10/31 00:20:47;;;;;;;9.40;3.57;;;;;;;15.57;58.54;100448.03;127108;1086;102191;-82
2023/10/31 00:23:16;;;;;;;13.57;3.93;;;;;;;15.54;58.02;100449.75;127174;1086;101894;-81
2023/10/31 00:25:45;;;;;;;9.83;3.67;;;;;;;15.51;58.64;100449.70;127079;1086;104350;-82
2023/10/31 00:28:13;;;;;;;9.70;3.70;;;;;;;15.47;57.63;100446.10;127027;1086;101987;-81
2023/10/31 00:30:42;;;;;;;16.77;4.33;;;;;;;15.42;57.87;100447.80;127100;1086;104345;-83
2023/10/31 00:33:10;;;;;;;12.30;3.90;;;;;;;15.39;57.90;100438.05;127104;1086;102385;-82
2023/10/31 00:35:39;;;;;;;11.93;4.00;;;;;;;15.36;58.61;100437.13;127107;1086;104229;-82
2023/10/31 00:38:08;;;;;;;13.20;3.83;;;;;;;15.31;59.05;100434.41;127093;1086;101811;-83
2023/10/31 00:40:36;;;;;;;12.90;4.00;;;;;;;15.28;58.09;100435.25;127108;1086;102024;-84
2023/10/31 00:43:05;;;;;;;16.30;4.10;;;;;;;15.25;58.88;100440.52;127006;1086;102156;-81
2023/10/31 00:45:33;;;;;;;13.03;3.70;;;;;;;15.20;58.62;100436.02;127146;1086;104210;-81
2023/10/31 00:48:02;;;;;;;8.37;4.10;;;;;;;15.16;58.76;100434.17;127071;1086;101826;-80
2023/10/31 00:50:31;;;;;;;8.33;3.97;;;;;;;15.15;59.21;100428.01;127129;1086;101808;-82
2023/10/31 00:52:59;;;;;;;12.27;4.17;;;;;;;15.13;58.92;100429.75;126824;1086;104321;-83
2023/10/31 00:55:28;;;;;;;15.00;4.40;;;;;;;15.12;59.14;100430.61;126861;1086;101938;-82
2023/10/31 00:57:56;;;;;;;17.97;4.23;;;;;;;15.09;59.02;100428.79;127132;1086;101960;-82
2023/10/31 01:00:25;;;;;;;9.63;4.30;;;;;;;15.07;59.38;100430.53;127125;1086;102002;-83
2023/10/31 01:02:54;;;;;;;10.43;4.20;;;;;;;15.06;59.15;100427.86;127139;1086;101983;-82
2023/10/31 01:05:22;;;;;;;12.50;4.20;;;;;;;15.02;59.58;100421.64;126895;1089;103414;-83
2023/10/31 01:07:51;;;;;;;13.35;4.45;;;;;;;14.99;59.02;100421.59;127046;1086;104149;-83
2023/10/31 01:10:20;;;;;;;13.60;4.60;;;;;;;14.97;58.60;100422.42;127086;1086;104184;-83
2023/10/31 01:12:49;;;;;;;14.93;4.60;;;;;;;14.95;59.03;100419.75;127116;1086;101831;-83
2023/10/31 01:15:17;;;;;;;13.73;4.40;;;;;;;14.93;58.79;100421.49;126838;1086;104213;-83
2023/10/31 01:17:46;;;;;;;9.83;3.83;;;;;;;14.91;59.73;100415.27;127073;1086;104232;-82
2023/10/31 01:20:15;;;;;;;10.23;4.17;;;;;;;14.89;59.69;100424.94;127073;1086;101928;-81
2023/10/31 01:22:43;;;;;;;11.67;4.17;;;;;;;14.86;59.32;100420.48;127080;1086;101932;-82
2023/10/31 01:25:12;;;;;;;12.97;4.30;;;;;;;14.85;59.48;100418.72;127044;1086;101887;-83
2023/10/31 01:27:41;;;;;;;13.20;4.20;;;;;;;14.83;58.89;100419.55;127040;1086;102637;-82
2023/10/31 01:30:13;;;;;;;9.30;3.90;;;;;;;14.81;59.92;100419.52;127175;1086;101877;-82
2023/10/31 01:32:42;;;;;;;11.37;4.60;;;;;;;14.78;59.95;100423.87;127068;1086;104149;-82
2023/10/31 01:35:11;;;;;;;9.70;4.00;;;;;;;14.74;59.42;100410.61;127072;1086;101816;-84
2023/10/31 01:37:39;;;;;;;11.60;4.03;;;;;;;14.72;59.21;100414.99;126905;1086;104149;-83
2023/10/31 01:40:14;;;;;;;8.80;3.70;;;;;;;14.70;59.59;100414.05;127105;1086;101739;-83
2023/10/31 01:42:42;;;;;;;9.30;3.83;;;;;;;14.70;60.20;100413.17;127060;1086;104228;-81
2023/10/31 01:45:12;;;;;;;14.27;4.30;;;;;;;14.69;60.32;100412.30;127003;1086;104162;-82
2023/10/31 01:47:42;;;;;;;13.40;4.30;;;;;;;14.69;59.37;100412.30;126914;1086;101756;-82
2023/10/31 01:50:11;;;;;;;11.80;3.83;;;;;;;14.68;59.76;100415.78;126906;1086;104334;-83
2023/10/31 01:52:40;;;;;;;13.37;4.00;;;;;;;14.67;59.43;100414.00;126912;1086;101927;-82
2023/10/31 01:55:11;;;;;;;10.77;3.87;;;;;;;14.67;60.45;100414.00;127081;1086;102379;-83
2023/10/31 01:57:39;;;;;;;8.73;4.03;;;;;;;14.65;59.48;100410.45;127036;1086;102886;-81
2023/10/31 02:00:11;;;;;;;9.77;4.13;;;;;;;14.65;59.43;100406.93;126850;1086;104079;-81
2023/10/31 02:02:43;;;;;;;8.97;4.17;;;;;;;14.67;59.71;100413.13;126843;1089;104114;-83
2023/10/31 02:05:11;;;;;;;10.87;4.30;;;;;;;14.67;59.74;100408.72;127010;1086;104286;-84
2023/10/31 02:07:40;;;;;;;11.67;4.10;;;;;;;14.65;60.47;100405.17;127000;1086;104183;-83
2023/10/31 02:10:09;;;;;;;10.53;3.80;;;;;;;14.65;59.66;100405.17;126865;1086;104181;-83
2023/10/31 02:12:39;;;;;;;10.70;4.40;;;;;;;14.63;60.60;100403.35;126784;1086;104197;-83
2023/10/31 02:15:11;;;;;;;8.27;3.90;;;;;;;14.61;59.65;100398.05;126906;1086;102011;-82
2023/10/31 02:17:40;;;;;;;12.47;4.37;;;;;;;14.60;60.34;100398.93;126880;1086;102143;-82
2023/10/31 02:20:10;;;;;;;12.87;3.80;;;;;;;14.57;60.44;100393.56;127032;1086;104171;-82
2023/10/31 02:22:39;;;;;;;10.67;4.07;;;;;;;14.57;59.86;100396.20;126866;1086;102156;-82
2023/10/31 02:25:18;;;;;;;12.07;3.73;;;;;;;14.55;60.40;100395.27;127043;1086;101817;-82
2023/10/31 02:27:47;;;;;;;8.07;3.83;;;;;;;14.55;59.83;100401.45;126984;1086;102146;-82
2023/10/31 02:30:16;;;;;;;9.83;3.87;;;;;;;14.53;60.62;100399.63;126806;1089;101987;-82
2023/10/31 02:32:44;;;;;;;13.23;3.80;;;;;;;14.51;60.13;100396.09;126799;1089;101992;-84
2023/10/31 02:35:14;;;;;;;8.47;3.63;;;;;;;14.50;60.17;100395.17;126947;1086;104265;-83
2023/10/31 02:37:42;;;;;;;11.40;3.87;;;;;;;14.48;60.96;100398.67;127033;1086;101762;-84
2023/10/31 02:40:12;;;;;;;10.80;3.93;;;;;;;14.47;60.55;100399.52;127009;1086;101864;-82
2023/10/31 02:42:41;;;;;;;9.47;3.80;;;;;;;14.47;60.92;100399.52;127005;1086;101999;-82
2023/10/31 02:45:11;;;;;;;11.20;3.73;;;;;;;14.46;60.99;100393.36;127021;1086;102175;-82
2023/10/31 02:47:39;;;;;;;14.83;4.30;;;;;;;14.46;60.13;100381.89;127079;1086;104233;-82
2023/10/31 02:50:09;;;;;;;12.30;3.70;;;;;;;14.47;60.70;100388.96;127030;1086;104286;-82
2023/10/31 02:52:38;;;;;;;8.10;3.83;;;;;;;14.44;60.50;100383.63;127000;1086;104222;-81
2023/10/31 02:55:07;;;;;;;9.60;4.20;;;;;;;14.43;60.37;100387.12;127085;1086;101989;-81
2023/10/31 02:57:36;;;;;;;10.27;3.90;;;;;;;14.41;60.17;100383.57;127133;1086;104235;-81
2023/10/31 03:00:07;;;;;;;13.43;4.00;;;;;;;14.38;60.75;100392.31;126808;1086;102009;-81
2023/10/31 03:02:36;;;;;;;15.80;4.07;;;;;;;14.34;60.75;100388.73;127006;1086;104143;-81
2023/10/31 03:05:07;;;;;;;11.73;3.77;;;;;;;14.32;60.26;100397.47;126941;1086;104197;-81
2023/10/31 03:07:35;;;;;;;8.53;3.70;;;;;;;14.30;60.83;100391.29;127049;1086;102108;-81
2023/10/31 03:10:06;;;;;;;11.20;3.83;;;;;;;14.29;60.13;100395.69;126745;1086;104249;-81
2023/10/31 03:12:34;;;;;;;6.80;3.23;;;;;;;14.27;60.82;100392.11;127106;1086;101957;-80
2023/10/31 03:15:04;;;;;;;9.25;3.35;;;;;;;14.28;60.10;100399.17;126857;1086;104215;-82
2023/10/31 03:17:32;;;;;;;12.00;3.80;;;;;;;14.29;60.57;100397.42;126831;1086;101886;-81
2023/10/31 03:20:01;;;;;;;10.27;3.53;;;;;;;14.28;60.53;100398.30;127028;1086;101796;-80
2023/10/31 03:22:29;;;;;;;7.67;3.20;;;;;;;14.26;61.16;100406.19;127115;1086;101853;-83
2023/10/31 03:24:58;;;;;;;14.00;3.40;;;;;;;14.26;60.44;100397.36;127104;1086;102005;-82
2023/10/31 03:27:27;;;;;;;11.80;3.57;;;;;;;14.25;60.76;100399.12;126900;1086;104273;-81
2023/10/31 03:29:55;;;;;;;12.13;3.60;;;;;;;14.23;60.08;100398.21;126940;1086;101880;-80
2023/10/31 03:32:24;;;;;;;9.83;3.50;;;;;;;14.20;60.92;100398.16;126896;1086;104392;-81
2023/10/31 03:34:53;;;;;;;10.50;3.30;;;;;;;14.19;60.43;100397.27;126768;1087;104242;-81
2023/10/31 03:37:21;;;;;;;7.47;3.00;;;;;;;14.20;60.34;100395.52;127047;1086;102161;-81
2023/10/31 03:39:50;;;;;;;8.60;2.83;;;;;;;14.20;60.59;100390.23;126888;1086;104194;-81
2023/10/31 03:42:18;;;;;;;11.00;3.10;;;;;;;14.22;60.66;100399.06;127026;1086;104213;-81
2023/10/31 03:44:47;;;;;;;9.07;3.40;;;;;;;14.23;60.71;100386.74;127038;1086;102100;-81
2023/10/31 03:47:16;;;;;;;9.67;3.40;;;;;;;14.24;61.10;100392.05;127121;1086;101848;-81
2023/10/31 03:49:45;;;;;;;9.83;3.00;;;;;;;14.22;60.87;100393.78;126877;1086;102209;-79
2023/10/31 03:52:13;;;;;;;9.47;2.87;;;;;;;14.22;60.50;100391.14;127141;1086;102067;-81
2023/10/31 03:54:42;;;;;;;12.37;3.87;;;;;;;14.19;60.36;100388.44;127107;1086;102174;-82
2023/10/31 03:57:11;;;;;;;7.73;3.20;;;;;;;14.16;61.01;100388.38;127231;1086;104210;-80
2023/10/31 03:59:40;;;;;;;10.17;3.30;;;;;;;14.14;61.33;100390.12;127123;1086;102188;-81
2023/10/31 04:02:08;;;;;;;11.83;3.20;;;;;;;14.12;61.13;100389.20;126779;1086;104193;-81
2023/10/31 04:04:38;;;;;;;9.00;3.37;;;;;;;14.08;61.11;100390.88;127109;1085;104210;-80
2023/10/31 04:07:06;;;;;;;14.10;3.67;;;;;;;14.08;60.57;100390.00;127149;1086;104075;-81
2023/10/31 04:09:35;;;;;;;10.93;3.40;;;;;;;14.05;61.30;100389.94;127029;1086;104287;-81
2023/10/31 04:12:05;;;;;;;9.03;3.13;;;;;;;14.01;60.87;100387.23;126912;1086;102233;-81
2023/10/31 04:14:33;;;;;;;13.50;4.23;;;;;;;13.99;60.89;100383.69;127014;1086;104297;-81
2023/10/31 04:17:03;;;;;;;10.57;3.70;;;;;;;13.96;60.86;100383.63;126841;1086;104204;-79
2023/10/31 04:19:31;;;;;;;9.43;3.30;;;;;;;13.93;60.69;100383.56;127082;1085;102063;-79
2023/10/31 04:22:00;;;;;;;9.70;3.30;;;;;;;13.92;60.30;100387.05;127027;1086;104162;-80
2023/10/31 04:24:28;;;;;;;11.00;3.57;;;;;;;13.92;60.48;100383.53;127048;1086;101842;-81
2023/10/31 04:26:57;;;;;;;13.37;3.57;;;;;;;13.84;60.89;100370.19;126861;1086;102159;-80
2023/10/31 04:29:26;;;;;;;9.87;3.20;;;;;;;13.91;60.89;100382.62;127035;1086;104216;-81
2023/10/31 04:31:54;;;;;;;10.67;3.53;;;;;;;13.91;60.70;100387.89;127106;1086;102080;-80
2023/10/31 04:34:23;;;;;;;10.73;3.30;;;;;;;13.92;60.40;100386.17;127133;1086;102198;-79
2023/10/31 04:36:51;;;;;;;13.93;3.40;;;;;;;13.94;60.74;100390.59;127046;1086;104159;-79
2023/10/31 04:39:20;;;;;;;22.53;3.57;;;;;;;13.95;60.16;100388.88;127071;1085;101974;-80
2023/10/31 04:41:49;;;;;;;14.80;4.03;;;;;;;13.94;60.61;100382.68;126876;1086;101908;-79
2023/10/31 04:44:17;;;;;;;11.57;3.73;;;;;;;13.94;60.85;100381.80;127101;1086;101793;-80
2023/10/31 04:46:46;;;;;;;12.00;3.23;;;;;;;13.91;61.00;100387.89;127087;1085;104283;-80
2023/10/31 04:49:15;;;;;;;9.30;3.47;;;;;;;13.88;60.19;100385.19;127050;1086;104322;-80
2023/10/31 04:51:44;;;;;;;11.57;3.40;;;;;;;13.86;60.94;100388.68;126998;1085;104178;-79
2023/10/31 04:54:12;;;;;;;11.07;3.80;;;;;;;13.83;60.28;100389.50;127208;1086;102066;-81
2023/10/31 04:56:41;;;;;;;13.87;3.80;;;;;;;13.82;60.65;100398.25;127049;1086;101819;-81
2023/10/31 04:59:10;;;;;;;14.50;3.60;;;;;;;13.80;60.65;100392.95;126842;1086;102003;-81
2023/10/31 05:01:38;;;;;;;14.60;3.43;;;;;;;13.79;60.08;100395.55;127016;1086;102057;-78
2023/10/31 05:04:07;;;;;;;12.70;3.57;;;;;;;13.79;60.96;100396.47;126956;1086;101954;-79
2023/10/31 05:06:36;;;;;;;14.30;3.30;;;;;;;13.80;60.48;100394.70;126797;1086;104226;-78
2023/10/31 05:09:05;;;;;;;12.73;3.43;;;;;;;13.80;60.60;100394.70;127023;1086;104225;-79
2023/10/31 05:11:34;;;;;;;12.30;3.30;;;;;;;13.79;60.76;100391.19;126858;1086;104283;-82
2023/10/31 05:14:03;;;;;;;10.73;3.50;;;;;;;13.80;60.34;100394.70;126873;1086;102666;-80
2023/10/31 05:16:31;;;;;;;10.83;3.53;;;;;;;13.79;60.27;100393.83;127011;1086;101964;-80
2023/10/31 05:19:04;;;;;;;10.37;3.23;;;;;;;13.79;60.84;100395.55;126985;1086;104152;-77
2023/10/31 05:21:33;;;;;;;17.23;4.10;;;;;;;13.78;61.04;100396.44;127053;1086;101957;-78
2023/10/31 05:24:01;;;;;;;16.93;4.10;;;;;;;13.77;60.26;100397.28;127042;1086;104159;-79
2023/10/31 05:26:30;;;;;;;11.47;3.87;;;;;;;13.78;60.74;100404.34;127129;1086;104210;-79
2023/10/31 05:28:58;;;;;;;17.13;4.27;;;;;;;13.80;60.89;100394.70;126987;1086;102280;-78
2023/10/31 05:31:27;;;;;;;14.10;4.20;;;;;;;13.83;60.51;100394.77;127033;1086;102276;-77
2023/10/31 05:33:56;;;;;;;11.45;3.90;;;;;;;13.87;60.58;100396.63;126940;1086;104168;-78
2023/10/31 05:36:27;;;;;;;21.60;4.47;;;;;;;13.90;60.04;100396.69;126977;1086;104177;-78
2023/10/31 05:38:56;;;;;;;12.60;4.03;;;;;;;13.94;60.15;100402.91;127049;1086;104061;-78
2023/10/31 05:41:26;;;;;;;14.30;4.20;;;;;;;13.98;60.50;100396.84;126672;1086;104191;-77
2023/10/31 05:43:54;;;;;;;13.93;4.30;;;;;;;14.02;59.80;100399.58;126772;1086;104159;-77
2023/10/31 05:46:23;;;;;;;10.67;3.90;;;;;;;14.08;59.97;100395.27;127105;1086;102560;-77
2023/10/31 05:48:52;;;;;;;18.57;5.13;;;;;;;14.13;60.12;100399.80;126960;1086;102194;-77
2023/10/31 05:51:20;;;;;;;22.73;5.33;;;;;;;14.18;59.67;100399.87;128681;1084;101915;-77
2023/10/31 05:53:49;;;;;;;22.20;5.80;;;;;;;14.23;60.49;100390.30;128384;1086;101774;-78
2023/10/31 05:56:18;;;;;;;16.87;5.60;;;;;;;14.29;60.43;100390.41;128502;1086;101766;-79
2023/10/31 05:58:47;;;;;;;19.13;5.90;;;;;;;14.37;60.71;100395.83;127851;1086;102019;-78
2023/10/31 06:01:15;;;;;;;19.83;5.10;;;;;;;14.45;60.21;100393.34;127048;1086;104281;-77
2023/10/31 06:03:45;;;;;;;20.50;5.47;;;;;;;14.49;60.46;100388.14;127124;1086;102099;-80
2023/10/31 06:06:13;;;;;;;17.17;5.60;;;;;;;14.56;59.86;100392.65;127375;1086;104156;-79
2023/10/31 06:08:43;;;;;;;16.75;4.50;;;;;;;14.64;59.63;100395.45;127263;1086;103310;-84
2023/10/31 06:11:12;;;;;;;16.90;5.10;;;;;;;14.71;60.10;100394.71;127343;1086;102440;-78
2023/10/31 06:13:42;;;;;;;16.53;4.93;;;;;;;14.79;59.38;100391.29;127075;1086;104283;-83
2023/10/31 06:16:11;;;;;;;15.33;4.83;;;;;;;14.84;60.15;100390.52;127195;1086;104217;-79
2023/10/31 06:18:40;;;;;;;9.90;4.80;;;;;;;14.90;59.38;100384.45;127156;1089;104027;-82
2023/10/31 06:21:10;;;;;;;17.73;5.37;;;;;;;14.96;59.94;100384.55;127434;1086;102002;-79
2023/10/31 06:23:39;;;;;;;16.43;5.60;;;;;;;15.04;59.81;100385.55;127365;1086;101964;-84
2023/10/31 06:26:08;;;;;;;17.93;5.10;;;;;;;15.10;59.44;100385.66;128401;1085;101816;-80
2023/10/31 06:28:40;;;;;;;13.60;4.73;;;;;;;15.15;59.33;100391.01;127299;1086;104220;-77
2023/10/31 06:31:08;;;;;;;15.40;4.80;;;;;;;15.19;59.00;100398.12;127391;1086;102249;-75
2023/10/31 06:33:37;;;;;;;18.30;5.57;;;;;;;15.26;58.43;100397.34;127581;1085;102212;-80
2023/10/31 06:36:09;;;;;;;14.50;5.20;;;;;;;15.36;59.33;100395.70;127904;1085;104225;-76
2023/10/31 06:38:39;;;;;;;16.60;4.60;;;;;;;15.45;59.07;100393.20;127639;1088;104252;-83
2023/10/31 06:41:13;;;;;;;22.37;5.90;;;;;;;15.54;58.47;100389.80;127303;1085;104231;-77
2023/10/31 06:43:42;;;;;;;13.60;4.70;;;;;;;15.65;58.00;100387.30;127961;1086;102159;-82
2023/10/31 06:46:15;;;;;;;14.20;5.53;;;;;;;15.75;58.34;100385.66;127623;1086;102198;-82
2023/10/31 06:48:45;;;;;;;13.73;4.90;;;;;;;15.85;58.73;100391.98;127953;1086;102020;-77
2023/10/31 06:51:14;;;;;;;15.87;5.80;;;;;;;15.93;58.03;100392.98;127887;1085;102922;-79
2023/10/31 06:53:45;;;;;;;17.47;5.17;;;;;;;16.01;57.88;100390.43;129045;1085;102267;-79
2023/10/31 06:56:14;;;;;;;15.80;5.33;;;;;;;16.07;57.82;100378.14;127695;1086;102107;-81
2023/10/31 06:58:43;;;;;;;19.40;5.87;;;;;;;16.11;58.02;100379.97;127547;1086;102513;-79
2023/10/31 07:01:18;;;;;;;17.60;5.80;;;;;;;16.17;57.43;100377.39;128390;1086;102084;-79
2023/10/31 07:03:48;;;;;;;16.07;5.50;;;;;;;16.24;57.42;100369.52;128086;1085;104171;-87
2023/10/31 07:06:17;;;;;;;18.47;5.73;;;;;;;16.33;57.54;100374.88;126825;1089;102371;-78
2023/10/31 07:08:45;;;;;;;17.83;5.93;;;;;;;16.41;57.19;100369.66;127777;1085;102128;-84
2023/10/31 07:11:14;;;;;;;17.77;6.20;;;;;;;16.47;57.86;100364.42;127577;1089;102059;-82
2023/10/31 07:13:46;;;;;;;16.33;5.83;;;;;;;16.56;57.65;100358.33;128377;1085;102579;-82
2023/10/31 07:16:29;;;;;;;21.37;6.53;;;;;;;16.63;57.28;100365.47;128105;1085;102101;-80
2023/10/31 07:19:01;;;;;;;18.55;6.58;;;;;;;16.68;56.76;100367.27;127902;1086;104158;-85
2023/10/31 07:21:31;;;;;;;;;;;;;;;16.77;57.25;100369.12;127992;1085;101996;-85
2023/10/31 07:24:01;;;;;;;13.50;4.53;;;;;;;16.83;57.14;100366.52;127311;1089;103106;-80
2023/10/31 07:26:33;;;;;;;6.13;3.10;;;;;;;16.97;56.69;100345.45;128120;1085;109405;-79
2023/10/31 07:29:25;;;;;;;6.63;3.13;;;;;;;17.18;56.58;100346.47;127465;1085;104124;-83
2023/10/31 07:32:40;;;;;;;9.70;2.87;;;;;;;17.41;56.21;100354.56;129154;1085;101832;-86
2023/10/31 07:50:29;;;;;;;6.83;2.63;;;;;;;18.51;55.06;100337.20;127752;1089;102112;-79
2023/10/31 08:04:14;;;;;;;6.70;2.60;;;;;;;19.22;54.29;100319.44;125248;1103;101959;-78
2023/10/31 08:06:59;;;;;;;5.90;2.50;;;;;;;19.36;54.16;100318.52;125298;1105;102084;-79
2023/10/31 08:09:47;;;;;;;10.80;3.00;;;;;;;19.49;53.65;100312.25;125165;1105;101719;-79
2023/10/31 08:12:36;;;;;;;3.67;2.35;;;;;;;19.63;52.79;100313.98;125452;1105;104197;-77
2023/10/31 08:15:06;;;;;;;6.12;2.55;;;;;;;19.74;53.13;100310.39;125108;1105;102830;-78
2023/10/31 08:17:37;;;;;;;8.63;3.00;;;;;;;19.86;53.13;100306.80;125242;1105;104172;-80
2023/10/31 08:20:12;;;;;;;8.53;2.70;;;;;;;19.99;52.20;100317.38;125355;1105;102602;-82
2023/10/31 08:22:44;;;;;;;5.37;2.60;;;;;;;20.09;52.64;100303.12;125279;1105;104226;-80
2023/10/31 08:25:23;;;;;;;;;;;;;;;20.20;52.55;100295.94;125137;1105;102495;-81
2023/10/31 08:27:57;;;;;;;7.40;2.70;;;;;;;20.30;52.73;100294.08;125008;1106;104153;-79
2023/10/31 08:30:30;;;;;;;7.15;2.90;;;;;;;20.42;51.64;100296.65;124482;1105;104740;-79
2023/10/31 08:32:59;;;;;;;7.87;3.30;;;;;;;20.54;51.36;100289.47;124997;1105;105017;-77
2023/10/31 08:35:29;;;;;;;8.00;2.73;;;;;;;20.67;51.71;100293.81;125138;1105;102753;-84
2023/10/31 08:38:25;;;;;;;6.90;2.67;;;;;;;20.77;51.58;100274.17;125192;1105;102601;-83
2023/10/31 08:41:00;;;;;;;9.80;2.72;;;;;;;20.90;50.45;100272.27;125122;1105;102919;-77
2023/10/31 08:43:38;;;;;;;11.10;2.80;;;;;;;21.00;51.10;100265.94;124834;1105;104082;-81
2023/10/31 08:46:21;;;;;;;11.70;2.93;;;;;;;21.13;50.18;100258.67;125077;1105;104219;-79
2023/10/31 08:48:54;;;;;;;6.53;2.60;;;;;;;21.26;50.17;100255.87;125129;1105;102385;-81
2023/10/31 08:51:24;;;;;;;7.80;2.73;;;;;;;21.36;49.86;100252.16;124969;1105;102663;-83
2023/10/31 08:53:54;;;;;;;6.30;2.70;;;;;;;21.46;49.80;100244.94;124926;1106;102330;-77
2023/10/31 08:56:23;;;;;;;8.57;3.23;;;;;;;21.55;49.98;100247.52;124042;1105;104350;-76
2023/10/31 08:58:52;;;;;;;6.80;3.10;;;;;;;21.64;49.01;100244.70;124217;1104;104226;-80
2023/10/31 09:01:26;;;;;;;5.90;2.80;;;;;;;21.70;49.15;100241.07;125049;1105;102129;-78
2023/10/31 09:04:03;;;;;;;7.40;2.90;;;;;;;21.76;48.22;100232.09;125046;1105;102590;-78
2023/10/31 09:06:34;;;;;;;6.93;2.90;;;;;;;21.82;49.02;100222.20;124989;1105;102744;-82
2023/10/31 09:09:05;;;;;;;6.50;3.20;;;;;;;21.93;48.40;100213.16;124983;1105;104127;-81
2023/10/31 09:11:37;;;;;;;7.67;3.00;;;;;;;22.03;47.75;100212.08;124972;1105;102469;-77
2023/10/31 09:14:06;;;;;;;10.13;2.90;;;;;;;22.07;46.84;100206.66;124360;1104;101997;-78
2023/10/31 09:16:36;;;;;;;4.67;2.47;;;;;;;22.16;47.29;100196.72;124311;1106;104172;-76
2023/10/31 09:19:08;;;;;;;5.27;2.70;;;;;;;22.22;46.59;100200.20;124189;1105;104371;-82
2023/10/31 09:21:37;;;;;;;9.27;2.60;;;;;;;22.30;46.50;100192.08;124980;1105;104307;-81
2023/10/31 09:24:08;;;;;;;5.20;2.80;;;;;;;22.36;46.64;100185.72;125046;1105;104156;-78
2023/10/31 09:26:37;;;;;;;10.33;2.50;;;;;;;22.46;46.20;100176.64;125169;1105;102581;-79
2023/10/31 09:29:07;;;;;;;9.57;2.90;;;;;;;22.53;46.13;100177.40;124303;1104;104218;-79
2023/10/31 09:31:41;;;;;;;10.03;2.90;;;;;;;22.62;45.73;100163.86;124378;1106;104402;-83
2023/10/31 09:34:22;;;;;;;9.63;3.63;;;;;;;22.64;45.53;100156.71;124545;1105;104226;-79
2023/10/31 09:36:52;;;;;;;6.60;2.43;;;;;;;22.68;45.33;100171.77;125053;1105;104364;-80
2023/10/31 09:39:22;;;;;;;9.37;2.90;;;;;;;22.74;44.84;100160.08;124870;1105;103279;-82
2023/10/31 09:42:00;;;;;;;9.73;2.97;;;;;;;22.82;44.89;100162.59;125036;1105;104173;-81
2023/10/31 09:44:30;;;;;;;7.83;2.80;;;;;;;22.88;44.98;100152.64;124894;1106;102275;-83
2023/10/31 09:47:02;;;;;;;9.90;3.03;;;;;;;22.93;44.87;100152.55;125031;1105;104171;-80
2023/10/31 09:49:35;;;;;;;8.00;2.90;;;;;;;22.99;44.51;100144.40;125218;1105;104277;-83
2023/10/31 09:52:07;;;;;;;9.40;2.97;;;;;;;23.06;44.12;100134.44;125210;1105;103461;-78
2023/10/31 09:54:37;;;;;;;7.67;2.90;;;;;;;23.09;44.10;100135.30;124901;1103;104210;-81
2023/10/31 09:57:07;;;;;;;10.77;3.00;;;;;;;23.12;44.15;100115.61;124745;1105;102455;-80
2023/10/31 09:59:36;;;;;;;10.03;3.13;;;;;;;23.15;43.99;100119.12;124451;1105;102606;-79
2023/10/31 10:02:06;;;;;;;7.77;3.00;;;;;;;23.19;43.55;100121.69;124494;1106;104249;-78
2023/10/31 10:07:28;;;;;;;8.03;3.20;;;;;;;23.28;43.43;100114.36;124573;1105;104715;-78
2023/10/31 10:10:00;;;;;;;5.93;2.80;;;;;;;23.28;42.59;100102.75;125465;1102;102113;-80
2023/10/31 10:12:33;;;;;;;;;;;;;;;23.31;43.27;100084.84;125583;1102;102135;-80
2023/10/31 10:15:23;;;;;;;8.20;3.43;;;;;;;23.33;42.40;100085.67;125449;1102;102904;-80
2023/10/31 10:17:52;;;;;;;9.13;3.10;;;;;;;23.38;42.46;100092.73;125258;1105;102311;-80
2023/10/31 10:20:22;;;;;;;12.50;3.30;;;;;;;23.44;42.49;100082.75;125267;1105;103839;-79
2023/10/31 10:22:51;;;;;;;12.93;3.50;;;;;;;23.51;42.30;100078.11;124330;1105;104409;-81
2023/10/31 10:25:24;;;;;;;8.40;2.70;;;;;;;23.56;42.50;100070.87;124445;1102;104191;-79
2023/10/31 10:27:58;;;;;;;8.03;2.87;;;;;;;23.59;41.74;100076.16;125340;1102;103052;-83
2023/10/31 10:30:30;;;;;;;6.13;2.60;;;;;;;23.61;41.76;100063.59;124535;1104;103823;-78
2023/10/31 10:33:02;;;;;;;8.97;3.17;;;;;;;23.62;41.08;100057.33;125369;1102;103016;-79
2023/10/31 10:35:31;;;;;;;9.30;2.70;;;;;;;23.66;40.90;100055.44;124657;1102;102500;-81
2023/10/31 10:38:01;;;;;;;9.00;2.87;;;;;;;23.66;41.04;100058.12;124435;1102;102359;-80
2023/10/31 10:40:29;;;;;;;9.67;3.23;;;;;;;23.70;41.07;100059.81;124416;1102;104150;-79
2023/10/31 10:43:08;;;;;;;7.27;2.80;;;;;;;23.72;40.85;100049.03;124349;1102;102669;-79
2023/10/31 10:45:55;;;;;;;10.09;2.70;;;;;;;23.73;40.93;100046.31;123193;1102;10001540;-80
2023/10/31 10:48:25;;;;;;;5.83;2.30;;;;;;;23.74;41.06;100053.44;124494;1103;104305;-81
2023/10/31 10:51:05;;;;;;;6.50;2.70;;;;;;;23.75;40.86;100048.95;124421;1106;104239;-80
2023/10/31 10:53:50;;;;;;;13.00;3.50;;;;;;;23.74;40.57;100037.36;124689;1102;104299;-79
2023/10/31 10:56:30;;;;;;;6.53;2.60;;;;;;;23.74;40.59;100045.41;125954;1102;102438;-85
2023/10/31 10:59:03;;;;;;;10.43;2.80;;;;;;;23.76;40.84;100043.55;125814;1102;102070;-79
2023/10/31 11:01:35;;;;;;;9.28;2.90;;;;;;;23.79;41.08;100040.80;125771;1102;102426;-81
2023/10/31 11:04:05;;;;;;;5.53;2.40;;;;;;;23.79;40.76;100018.50;125731;1105;102007;-80
2023/10/31 11:06:35;;;;;;;13.90;2.80;;;;;;;23.79;40.82;100035.44;125711;1105;102488;-79
2023/10/31 11:09:11;;;;;;;9.60;2.70;;;;;;;23.78;40.66;100012.27;125683;1104;102003;-80
2023/10/31 11:11:57;;;;;;;7.40;2.73;;;;;;;23.80;40.91;100015.77;125922;1101;102237;-79
2023/10/31 11:14:38;;;;;;;8.30;2.73;;;;;;;23.82;40.48;100021.09;125731;1105;102552;-78
2023/10/31 11:17:23;;;;;;;8.73;2.40;;;;;;;23.80;40.66;99997.02;125952;1102;102360;-83
2023/10/31 11:19:59;;;;;;;7.13;2.73;;;;;;;23.79;40.61;100003.29;125993;1102;102296;-82
2023/10/31 11:22:43;;;;;;;8.73;2.40;;;;;;;23.81;40.88;100008.61;125930;1102;102864;-79
2023/10/31 11:25:19;;;;;;;6.03;2.53;;;;;;;23.82;40.95;100002.34;126161;1102;102011;-83
2023/10/31 11:27:56;;;;;;;4.97;2.50;;;;;;;23.81;41.20;100005.93;126110;1101;102074;-81
2023/10/31 11:30:43;;;;;;;13.57;3.23;;;;;;;23.81;40.80;100000.57;126159;1102;102123;-81
2023/10/31 11:33:19;;;;;;;8.20;3.23;;;;;;;23.77;40.94;99996.23;126222;1101;101953;-85
2023/10/31 11:35:59;;;;;;;10.10;2.77;;;;;;;23.76;41.01;99984.63;125726;1102;103848;-82
2023/10/31 11:38:35;;;;;;;4.93;2.90;;;;;;;23.75;40.91;99990.02;126088;1102;104108;-82
2023/10/31 11:41:08;;;;;;;8.67;2.67;;;;;;;23.73;40.93;99982.02;126057;1102;102203;-79
2023/10/31 11:43:55;;;;;;;6.17;2.97;;;;;;;23.73;41.33;99978.48;126159;1102;101851;-82
2023/10/31 11:46:32;;;;;;;7.67;2.73;;;;;;;23.74;41.26;99982.92;125928;1102;101914;-80
2023/10/31 11:49:05;;;;;;;8.77;2.80;;;;;;;23.72;41.49;99980.29;125377;1101;110818;-78
2023/10/31 11:51:36;;;;;;;9.20;2.67;;;;;;;23.71;41.31;99977.65;124831;1102;102697;-78
2023/10/31 11:54:09;;;;;;;9.70;2.70;;;;;;;23.69;41.39;99970.52;124939;1102;104252;-81